Time;durP1;ratioP1;P1;durP2;ratioP2;P2;SDS_P1;SDS_P2;PMS_P1;PMS_P2;Temp;Humidity;BMP_temperature;BMP_pressure;BME280_temperature;BME280_humidity;BME280_pressure;Samples;Min_cycle;Max_cycle;Signal;HPM_P1;HPM_P2
2023/11/18 00:01:23;;;;;;;13.70;11.10;;;;;;;2.57;85.29;100155.78;103136;1254;138992;-69
2023/11/18 00:03:50;;;;;;;14.30;11.00;;;;;;;2.56;85.37;100156.98;103616;1253;108500;-71
2023/11/18 00:06:17;;;;;;;13.90;11.50;;;;;;;2.58;85.43;100158.52;103737;1254;96446;-71
2023/11/18 00:08:44;;;;;;;14.30;11.50;;;;;;;2.61;85.44;100163.49;104475;1254;137466;-72
2023/11/18 00:11:13;;;;;;;15.00;11.60;;;;;;;2.63;85.41;100161.27;103836;1254;1002562;-72
2023/11/18 00:13:42;;;;;;;14.90;12.50;;;;;;;2.64;85.61;100165.38;103754;1254;1002959;-72
2023/11/18 00:16:12;;;;;;;16.30;12.90;;;;;;;2.61;85.40;100168.13;103047;1253;1002754;-72
2023/11/18 00:18:40;;;;;;;15.80;12.80;;;;;;;2.62;85.39;100171.56;103863;1254;95055;-71
2023/11/18 00:21:08;;;;;;;16.30;12.70;;;;;;;2.57;85.31;100175.17;103503;1254;138078;-71
2023/11/18 00:23:34;;;;;;;17.20;12.60;;;;;;;2.52;85.38;100173.98;103929;1254;108839;-71
2023/11/18 00:26:02;;;;;;;16.60;12.80;;;;;;;2.51;85.22;100179.97;103472;1254;139119;-71
2023/11/18 00:28:28;;;;;;;15.70;11.70;;;;;;;2.50;85.40;100178.77;104017;1254;107011;-71
2023/11/18 00:30:55;;;;;;;15.40;12.20;;;;;;;2.53;85.53;100182.90;104065;1253;95423;-73
2023/11/18 00:33:22;;;;;;;15.70;12.10;;;;;;;2.56;85.65;100182.90;103520;1254;1003249;-71
2023/11/18 00:35:49;;;;;;;15.10;12.70;;;;;;;2.62;85.65;100187.35;103969;1254;107944;-71
2023/11/18 00:38:17;;;;;;;13.90;12.30;;;;;;;2.64;85.43;100190.77;103281;1254;137464;-71
2023/11/18 00:40:44;;;;;;;14.50;12.00;;;;;;;2.65;85.61;100189.92;103345;1253;107830;-71
2023/11/18 00:43:11;;;;;;;14.40;11.50;;;;;;;2.67;85.47;100193.00;104632;1253;94824;-72
2023/11/18 00:45:38;;;;;;;15.00;11.20;;;;;;;2.65;85.49;100193.01;104474;1254;107989;-72
2023/11/18 00:48:05;;;;;;;14.20;10.90;;;;;;;2.65;85.51;100197.13;104172;1254;107195;-72
2023/11/18 00:50:33;;;;;;;12.70;10.30;;;;;;;2.64;85.58;100198.67;103770;1254;1002374;-71
2023/11/18 00:53:00;;;;;;;14.00;10.00;;;;;;;2.63;85.37;100201.09;103389;1254;107582;-72
2023/11/18 00:55:26;;;;;;;13.60;11.10;;;;;;;2.66;85.49;100198.49;102621;1254;1003309;-71
2023/11/18 00:57:53;;;;;;;13.50;11.40;;;;;;;2.70;85.65;100199.02;103512;1256;108748;-73
2023/11/18 01:00:21;;;;;;;13.20;10.80;;;;;;;2.72;85.38;100206.24;103238;1254;108368;-71
2023/11/18 01:02:49;;;;;;;13.90;11.20;;;;;;;2.72;85.30;100208.48;103016;1254;1002814;-72
2023/11/18 01:05:17;;;;;;;13.40;10.90;;;;;;;2.71;85.36;100208.81;103387;1256;107617;-71
2023/11/18 01:07:44;;;;;;;12.30;10.20;;;;;;;2.69;85.13;100206.92;103046;1258;137720;-72
2023/11/18 01:10:13;;;;;;;12.80;9.80;;;;;;;2.63;85.34;100205.38;102692;1253;1003109;-72
2023/11/18 01:12:40;;;;;;;13.10;9.70;;;;;;;2.63;85.26;100209.67;104553;1254;107256;-70
2023/11/18 01:15:10;;;;;;;12.00;9.00;;;;;;;2.58;85.10;100207.79;104510;1253;137871;-72
2023/11/18 01:17:37;;;;;;;11.60;9.30;;;;;;;2.60;85.50;100208.30;104577;1254;107318;-70
2023/11/18 01:20:09;;;;;;;12.20;9.30;;;;;;;2.63;85.49;100208.11;103391;1254;139070;-71
2023/11/18 01:22:37;;;;;;;11.90;9.40;;;;;;;2.64;85.43;100205.55;102531;1253;1003020;-72
2023/11/18 01:25:05;;;;;;;12.60;9.80;;;;;;;2.69;85.41;100209.33;103525;1254;108178;-72
2023/11/18 01:27:33;;;;;;;13.30;10.50;;;;;;;2.70;85.25;100206.92;103930;1254;137758;-73
2023/11/18 01:30:00;;;;;;;13.70;10.90;;;;;;;2.71;85.06;100212.08;103688;1257;107989;-71
2023/11/18 01:32:30;;;;;;;13.20;10.70;;;;;;;2.68;85.12;100208.80;103524;1253;1002566;-71
2023/11/18 01:34:57;;;;;;;11.50;10.00;;;;;;;2.66;85.01;100204.16;103859;1253;1002729;-71
2023/11/18 01:37:24;;;;;;;11.50;9.50;;;;;;;2.60;84.91;100198.34;104413;1253;137734;-71
2023/11/18 01:39:52;;;;;;;11.90;9.70;;;;;;;2.53;84.79;100198.01;103285;1254;96442;-71
2023/11/18 01:42:18;;;;;;;11.30;9.40;;;;;;;2.49;85.15;100196.79;103286;1254;108571;-71
2023/11/18 01:44:45;;;;;;;11.10;9.10;;;;;;;2.46;85.00;100196.80;103187;1253;137983;-71
2023/11/18 01:47:12;;;;;;;12.00;9.20;;;;;;;2.43;85.13;100201.44;103170;1254;110559;-70
2023/11/18 01:49:40;;;;;;;10.20;8.10;;;;;;;2.39;85.32;100200.92;103026;1257;138308;-71
2023/11/18 01:52:09;;;;;;;10.10;8.70;;;;;;;2.43;85.26;100203.84;103190;1254;96468;-71
2023/11/18 01:54:39;;;;;;;9.30;8.30;;;;;;;2.47;85.49;100199.02;104026;1253;108697;-71
2023/11/18 01:57:09;;;;;;;10.80;9.10;;;;;;;2.49;85.61;100194.73;103163;1257;1003655;-71
2023/11/18 01:59:37;;;;;;;10.10;9.00;;;;;;;2.52;85.40;100194.23;104566;1253;110307;-72
2023/11/18 02:02:05;;;;;;;10.90;9.50;;;;;;;2.50;85.16;100195.93;103104;1252;137567;-71
2023/11/18 02:04:32;;;;;;;11.90;9.70;;;;;;;2.48;85.17;100195.08;103573;1254;96313;-71
2023/11/18 02:07:03;;;;;;;16.10;9.50;;;;;;;2.45;84.98;100198.69;103414;1254;108134;-71
2023/11/18 02:09:31;;;;;;;10.70;8.50;;;;;;;2.38;85.30;100200.76;103399;1257;137396;-71
2023/11/18 02:12:01;;;;;;;11.00;8.60;;;;;;;2.32;85.21;100201.08;102676;1253;1003497;-71
2023/11/18 02:14:30;;;;;;;9.60;8.00;;;;;;;2.32;85.44;100200.39;103105;1253;1002511;-71
2023/11/18 02:17:00;;;;;;;9.20;7.80;;;;;;;2.31;85.54;100208.11;103314;1254;97082;-71
2023/11/18 02:19:29;;;;;;;10.80;8.30;;;;;;;2.31;85.40;100209.48;103530;1253;137625;-71
2023/11/18 02:21:58;;;;;;;11.90;8.50;;;;;;;2.31;85.55;100212.05;103484;1254;96565;-71
2023/11/18 02:24:30;;;;;;;11.10;9.20;;;;;;;2.33;85.51;100215.66;103528;1253;109370;-71
2023/11/18 02:26:59;;;;;;;12.40;9.80;;;;;;;2.32;85.76;100215.49;103822;1253;138187;-71
2023/11/18 02:29:28;;;;;;;12.00;10.20;;;;;;;2.32;85.65;100215.83;104152;1253;94707;-71
2023/11/18 02:32:01;;;;;;;13.90;10.50;;;;;;;2.30;85.52;100220.80;104197;1254;137737;-71
2023/11/18 02:34:34;;;;;;;11.20;9.40;;;;;;;2.27;85.75;100224.08;103988;1253;96449;-70
2023/11/18 02:37:06;;;;;;;10.70;8.60;;;;;;;2.25;85.69;100228.88;103508;1254;111212;-70
2023/11/18 02:39:40;;;;;;;10.90;7.70;;;;;;;2.24;85.67;100227.49;103593;1253;138178;-71
2023/11/18 02:42:10;;;;;;;11.60;7.90;;;;;;;2.26;86.00;100228.70;103756;1252;96949;-71
2023/11/18 02:44:38;;;;;;;10.50;8.40;;;;;;;2.29;85.99;100229.04;102668;1256;1003350;-70
2023/11/18 02:47:06;;;;;;;16.70;8.30;;;;;;;2.32;85.99;100224.92;102725;1253;1003076;-69
2023/11/18 02:49:35;;;;;;;11.40;9.60;;;;;;;2.33;85.77;100229.91;103324;1253;140536;-69
2023/11/18 02:52:02;;;;;;;11.20;8.90;;;;;;;2.32;85.67;100233.84;104401;1254;107675;-70
2023/11/18 02:54:29;;;;;;;11.70;9.30;;;;;;;2.28;85.66;100234.02;103339;1253;1002505;-71
2023/11/18 02:56:58;;;;;;;12.70;10.10;;;;;;;2.28;85.75;100233.50;102594;1257;1003085;-69
2023/11/18 02:59:25;;;;;;;12.10;8.50;;;;;;;2.24;85.71;100237.79;103480;1254;96319;-71
2023/11/18 03:01:55;;;;;;;10.90;8.40;;;;;;;2.21;85.57;100236.42;102590;1253;1003175;-70
2023/11/18 03:04:23;;;;;;;9.70;7.80;;;;;;;2.16;85.74;100242.94;103529;1253;108080;-71
2023/11/18 03:06:51;;;;;;;9.60;7.20;;;;;;;2.15;85.94;100245.83;103867;1253;96433;-71
2023/11/18 03:09:18;;;;;;;8.80;7.50;;;;;;;2.15;85.98;100252.18;103313;1257;137628;-71
2023/11/18 03:11:45;;;;;;;8.80;7.30;;;;;;;2.17;85.98;100249.98;102718;1257;1003278;-71
2023/11/18 03:14:12;;;;;;;10.50;7.90;;;;;;;2.17;85.90;100254.27;102847;1252;1003412;-71
2023/11/18 03:16:40;;;;;;;11.00;9.10;;;;;;;2.19;86.05;100254.61;103930;1254;107493;-71
2023/11/18 03:19:08;;;;;;;13.10;9.60;;;;;;;2.20;85.87;100259.07;103377;1253;96485;-71
2023/11/18 03:21:36;;;;;;;12.10;10.00;;;;;;;2.25;86.24;100254.78;103509;1257;137549;-71
2023/11/18 03:24:03;;;;;;;15.10;10.60;;;;;;;2.26;85.94;100257.18;103486;1253;95127;-70
2023/11/18 03:26:31;;;;;;;11.70;9.90;;;;;;;2.19;85.67;100266.45;103758;1253;137387;-71
2023/11/18 03:28:58;;;;;;;11.60;9.10;;;;;;;2.14;85.77;100273.77;104190;1253;107804;-71
2023/11/18 03:31:26;;;;;;;12.30;9.20;;;;;;;2.13;85.91;100274.64;103472;1254;138366;-71
2023/11/18 03:33:53;;;;;;;11.20;8.60;;;;;;;2.12;86.04;100277.73;103934;1256;107560;-72
2023/11/18 03:36:19;;;;;;;12.30;8.30;;;;;;;2.10;86.18;100275.50;102575;1253;1003365;-71
2023/11/18 03:38:47;;;;;;;9.10;7.60;;;;;;;2.09;86.17;100280.13;103430;1256;138159;-72
2023/11/18 03:41:14;;;;;;;10.00;6.80;;;;;;;2.06;86.10;100277.89;103493;1253;107760;-71
2023/11/18 03:43:41;;;;;;;8.50;6.90;;;;;;;2.09;86.31;100283.21;103579;1253;140909;-71
2023/11/18 03:46:08;;;;;;;9.60;6.60;;;;;;;2.12;86.25;100283.90;103676;1254;107698;-71
2023/11/18 03:48:35;;;;;;;10.30;7.60;;;;;;;2.13;86.22;100279.98;102866;1253;1002986;-72
2023/11/18 03:51:03;;;;;;;10.80;8.00;;;;;;;2.17;86.17;100287.55;103750;1253;138202;-71
2023/11/18 03:53:30;;;;;;;9.50;8.10;;;;;;;2.17;86.10;100291.83;103527;1253;107685;-71
2023/11/18 03:55:56;;;;;;;11.50;9.40;;;;;;;2.17;86.12;100289.24;103354;1254;138656;-71
2023/11/18 03:58:23;;;;;;;15.00;10.00;;;;;;;2.20;86.17;100293.02;103387;1257;107666;-71
2023/11/18 04:00:50;;;;;;;10.20;9.10;;;;;;;2.20;86.03;100297.15;102558;1253;1002979;-71
2023/11/18 04:03:17;;;;;;;10.80;7.40;;;;;;;2.17;85.91;100299.20;102990;1253;1003505;-71
2023/11/18 04:05:45;;;;;;;8.80;7.20;;;;;;;2.15;85.86;100300.20;103937;1253;108656;-71
2023/11/18 04:08:11;;;;;;;10.00;7.20;;;;;;;2.11;85.92;100302.94;103690;1253;138754;-71
2023/11/18 04:10:38;;;;;;;9.40;6.70;;;;;;;2.10;85.98;100302.25;104086;1253;107958;-71
2023/11/18 04:13:05;;;;;;;8.70;7.20;;;;;;;2.11;85.94;100303.45;104831;1253;94559;-72
2023/11/18 04:15:32;;;;;;;8.40;7.40;;;;;;;2.15;86.16;100306.56;104662;1252;137610;-72
2023/11/18 04:17:59;;;;;;;10.00;8.40;;;;;;;2.16;85.98;100306.23;104262;1253;107006;-72
2023/11/18 04:20:26;;;;;;;10.10;8.30;;;;;;;2.12;85.54;100310.48;104148;1253;137207;-72
2023/11/18 04:22:54;;;;;;;11.50;8.90;;;;;;;2.07;85.54;100312.70;103482;1253;108186;-71
2023/11/18 04:25:21;;;;;;;11.20;8.60;;;;;;;2.03;85.60;100314.92;103744;1254;137455;-71
2023/11/18 04:27:48;;;;;;;9.80;8.10;;;;;;;1.99;85.83;100317.50;104300;1253;111653;-72
2023/11/18 04:30:16;;;;;;;8.70;7.40;;;;;;;1.94;85.92;100313.34;103508;1254;107483;-71
2023/11/18 04:32:43;;;;;;;8.60;7.10;;;;;;;1.91;85.91;100315.23;103918;1253;137991;-72
2023/11/18 04:35:11;;;;;;;7.80;6.40;;;;;;;1.93;86.26;100319.52;103651;1257;105719;-71
2023/11/18 04:37:42;;;;;;;8.80;7.40;;;;;;;1.95;86.14;100323.98;103034;1252;1003023;-71
2023/11/18 04:40:12;;;;;;;12.40;8.50;;;;;;;1.94;86.03;100322.09;103977;1257;109271;-72
2023/11/18 04:42:40;;;;;;;10.70;8.40;;;;;;;1.95;86.16;100320.89;103431;1253;107566;-71
2023/11/18 04:45:10;;;;;;;11.30;9.20;;;;;;;1.98;86.31;100322.12;103374;1254;137394;-71
2023/11/18 04:47:38;;;;;;;11.70;9.60;;;;;;;2.00;86.38;100321.27;102801;1253;1003655;-71
2023/11/18 04:50:08;;;;;;;11.80;9.80;;;;;;;2.02;86.35;100325.73;104004;1253;138500;-71
2023/11/18 04:52:36;;;;;;;11.00;8.30;;;;;;;1.97;86.26;100323.81;103623;1253;110155;-70
2023/11/18 04:55:05;;;;;;;9.90;7.30;;;;;;;1.96;86.22;100326.72;104244;1253;107615;-71
2023/11/18 04:57:32;;;;;;;11.70;6.70;;;;;;;1.95;86.31;100328.60;103808;1253;137804;-71
2023/11/18 04:59:58;;;;;;;11.60;6.60;;;;;;;1.96;86.19;100335.29;103906;1253;108151;-72
2023/11/18 05:02:25;;;;;;;7.00;6.00;;;;;;;2.00;86.22;100335.51;103410;1253;138201;-71
2023/11/18 05:04:52;;;;;;;12.30;8.60;;;;;;;2.00;86.09;100337.39;103748;1253;109563;-70
2023/11/18 05:07:19;;;;;;;12.10;8.80;;;;;;;2.02;86.19;100336.02;103689;1253;137527;-70
2023/11/18 05:09:46;;;;;;;14.40;9.30;;;;;;;2.04;86.19;100336.71;104176;1253;96569;-71
2023/11/18 05:12:13;;;;;;;11.40;9.10;;;;;;;2.04;86.10;100342.20;103458;1256;108406;-70
2023/11/18 05:14:40;;;;;;;12.10;9.60;;;;;;;2.05;86.27;100346.67;103301;1257;137277;-71
2023/11/18 05:17:07;;;;;;;13.00;10.20;;;;;;;2.03;86.09;100347.01;102648;1253;1002989;-71
2023/11/18 05:19:34;;;;;;;10.80;7.40;;;;;;;1.97;85.97;100342.34;103231;1253;137777;-70
2023/11/18 05:22:00;;;;;;;11.10;6.90;;;;;;;1.88;85.71;100339.56;103287;1254;96468;-71
2023/11/18 05:24:27;;;;;;;9.70;6.20;;;;;;;1.85;85.89;100337.67;103321;1253;108180;-71
2023/11/18 05:26:55;;;;;;;9.20;6.60;;;;;;;1.83;85.95;100345.38;103151;1253;137802;-71
2023/11/18 05:29:23;;;;;;;9.70;7.50;;;;;;;1.83;86.07;100345.72;103338;1253;111454;-71
2023/11/18 05:31:51;;;;;;;9.20;8.10;;;;;;;1.84;86.34;100351.55;103206;1253;137700;-71
2023/11/18 05:34:20;;;;;;;10.30;8.40;;;;;;;1.86;86.37;100353.95;103364;1253;96389;-70
2023/11/18 05:36:48;;;;;;;10.10;8.60;;;;;;;1.86;86.18;100359.09;103319;1253;108497;-70
2023/11/18 05:39:15;;;;;;;11.90;9.20;;;;;;;1.83;86.10;100366.80;103335;1253;137268;-70
2023/11/18 05:41:45;;;;;;;12.30;9.70;;;;;;;1.81;86.03;100371.61;102524;1253;1003328;-70
2023/11/18 05:44:17;;;;;;;9.50;7.40;;;;;;;1.78;86.36;100372.42;103325;1253;137547;-70
2023/11/18 05:46:46;;;;;;;9.20;7.10;;;;;;;1.79;86.51;100374.99;102570;1253;1003159;-71
2023/11/18 05:49:13;;;;;;;7.90;6.00;;;;;;;1.78;86.44;100382.02;103570;1253;107760;-71
2023/11/18 05:51:40;;;;;;;8.90;6.10;;;;;;;1.79;86.30;100384.60;103818;1255;96555;-71
2023/11/18 05:54:07;;;;;;;7.50;6.60;;;;;;;1.80;86.40;100393.02;103803;1253;109771;-72
2023/11/18 05:56:34;;;;;;;11.80;7.40;;;;;;;1.84;86.50;100396.13;103295;1253;137377;-72
2023/11/18 05:59:03;;;;;;;9.30;7.40;;;;;;;1.86;86.27;100400.59;103537;1253;97115;-72
2023/11/18 06:01:30;;;;;;;10.00;7.90;;;;;;;1.83;86.18;100405.21;103383;1256;137078;-71
2023/11/18 06:03:57;;;;;;;11.70;8.90;;;;;;;1.84;86.06;100411.73;103528;1253;96569;-71
2023/11/18 06:06:24;;;;;;;13.30;8.90;;;;;;;1.84;86.40;100411.05;103557;1253;111290;-72
2023/11/18 06:08:51;;;;;;;12.50;9.60;;;;;;;1.83;86.23;100412.23;103328;1257;137604;-70
2023/11/18 06:11:19;;;;;;;13.80;9.30;;;;;;;1.80;86.43;100411.19;103451;1253;96462;-70
2023/11/18 06:13:47;;;;;;;11.50;7.80;;;;;;;1.81;86.47;100413.77;103350;1253;138001;-70
2023/11/18 06:16:16;;;;;;;10.50;7.00;;;;;;;1.79;86.41;100414.09;103468;1254;96445;-71
2023/11/18 06:18:45;;;;;;;10.00;7.00;;;;;;;1.81;86.55;100416.00;102679;1253;1003057;-71
2023/11/18 06:21:14;;;;;;;9.20;7.10;;;;;;;1.83;86.47;100418.24;102594;1254;1003469;-69
2023/11/18 06:23:41;;;;;;;10.50;8.00;;;;;;;1.87;86.58;100427.00;103489;1253;96952;-72
2023/11/18 06:26:10;;;;;;;10.90;7.60;;;;;;;1.88;86.38;100430.95;102500;1253;1003184;-69
2023/11/18 06:28:38;;;;;;;10.40;8.00;;;;;;;1.88;86.30;100440.04;103424;1255;96479;-69
2023/11/18 06:31:08;;;;;;;10.10;7.80;;;;;;;1.88;86.42;100448.61;103363;1253;110422;-70
2023/11/18 06:33:37;;;;;;;8.40;7.20;;;;;;;1.88;86.28;100451.87;103441;1253;137794;-70
2023/11/18 06:36:04;;;;;;;9.10;7.20;;;;;;;1.79;85.97;100455.23;103695;1253;96954;-70
2023/11/18 06:38:31;;;;;;;7.80;5.70;;;;;;;1.76;86.45;100458.98;103743;1252;1002203;-70
2023/11/18 06:40:58;;;;;;;8.80;5.50;;;;;;;1.77;86.45;100458.13;102915;1252;1003460;-71
2023/11/18 06:43:25;;;;;;;6.00;5.40;;;;;;;1.77;86.45;100456.58;103370;1253;138362;-70
2023/11/18 06:45:54;;;;;;;6.40;5.50;;;;;;;1.79;86.34;100461.92;103456;1253;107508;-70
2023/11/18 06:48:22;;;;;;;9.30;6.00;;;;;;;1.79;86.32;100461.92;103605;1253;97017;-70
2023/11/18 06:50:49;;;;;;;6.40;5.50;;;;;;;1.82;86.53;100464.00;103403;1253;136965;-70
2023/11/18 06:53:16;;;;;;;8.90;6.30;;;;;;;1.84;86.33;100464.88;103424;1253;96457;-70
2023/11/18 06:55:44;;;;;;;7.40;6.30;;;;;;;1.85;86.34;100473.63;103389;1253;140015;-73
2023/11/18 06:58:13;;;;;;;8.30;5.90;;;;;;;1.86;86.44;100473.63;103397;1253;107837;-70
2023/11/18 07:00:40;;;;;;;6.30;5.60;;;;;;;1.84;86.24;100479.62;102583;1253;1003406;-69
2023/11/18 07:03:07;;;;;;;6.50;5.70;;;;;;;1.79;86.29;100484.03;103348;1253;138034;-70
2023/11/18 07:05:34;;;;;;;6.00;4.90;;;;;;;1.78;86.34;100485.55;103527;1253;96473;-70
2023/11/18 07:08:03;;;;;;;5.40;4.90;;;;;;;1.78;86.56;100487.96;102673;1253;1003658;-71
2023/11/18 07:10:30;;;;;;;5.00;4.20;;;;;;;1.81;86.44;100495.04;103339;1257;107806;-73
2023/11/18 07:12:59;;;;;;;6.20;4.50;;;;;;;1.82;86.26;100497.79;103349;1253;98109;-71
2023/11/18 07:15:26;;;;;;;5.80;4.70;;;;;;;1.85;86.41;100503.63;103336;1255;137085;-71
2023/11/18 07:17:54;;;;;;;6.30;5.10;;;;;;;1.87;86.42;100504.16;103402;1256;96455;-74
2023/11/18 07:20:22;;;;;;;7.20;5.70;;;;;;;1.88;86.41;100506.39;103300;1253;137197;-72
2023/11/18 07:22:49;;;;;;;8.10;5.90;;;;;;;1.89;86.43;100510.50;103350;1253;107543;-73
2023/11/18 07:25:17;;;;;;;7.20;6.40;;;;;;;1.84;86.25;100510.14;103446;1252;96473;-69
2023/11/18 07:27:44;;;;;;;6.50;5.40;;;;;;;1.84;86.23;100508.24;102652;1253;1003369;-73
2023/11/18 07:30:12;;;;;;;7.80;5.70;;;;;;;1.84;86.40;100513.73;103366;1253;96444;-71
2023/11/18 07:32:40;;;;;;;5.90;5.10;;;;;;;1.84;86.48;100514.77;103622;1253;138780;-71
2023/11/18 07:35:09;;;;;;;5.60;4.80;;;;;;;1.86;86.33;100517.01;103812;1252;107976;-71
2023/11/18 07:37:36;;;;;;;6.00;5.30;;;;;;;1.90;86.34;100520.80;103537;1254;137999;-71
2023/11/18 07:40:05;;;;;;;7.20;5.30;;;;;;;1.96;86.35;100520.67;103388;1257;107390;-71
2023/11/18 07:42:35;;;;;;;7.10;5.50;;;;;;;1.97;85.94;100519.83;101828;1257;1003070;-71
2023/11/18 07:45:04;;;;;;;6.50;5.70;;;;;;;1.97;85.90;100523.42;103789;1252;137737;-70
2023/11/18 07:47:32;;;;;;;7.00;5.80;;;;;;;1.99;86.02;100517.98;103444;1254;107832;-71
2023/11/18 07:49:59;;;;;;;7.10;5.80;;;;;;;1.96;85.80;100522.55;103327;1256;137965;-72
2023/11/18 07:52:28;;;;;;;6.80;5.90;;;;;;;1.93;85.83;100527.51;103469;1256;108609;-72
2023/11/18 07:54:55;;;;;;;5.80;4.70;;;;;;;1.91;85.87;100530.92;103374;1253;96521;-71
2023/11/18 07:57:23;;;;;;;6.30;5.70;;;;;;;1.96;86.00;100538.86;103287;1253;138428;-72
2023/11/18 07:59:51;;;;;;;6.40;5.50;;;;;;;1.99;85.89;100540.42;103413;1254;107325;-72
2023/11/18 08:02:19;;;;;;;9.60;5.60;;;;;;;2.02;85.67;100550.73;102673;1257;1003044;-71
2023/11/18 08:04:46;;;;;;;7.00;5.90;;;;;;;2.05;85.71;100549.56;103429;1253;107897;-72
2023/11/18 08:07:13;;;;;;;8.00;6.30;;;;;;;2.05;85.50;100556.77;103469;1253;96752;-70
2023/11/18 08:09:43;;;;;;;11.10;6.40;;;;;;;2.04;85.51;100558.98;103285;1254;136967;-71
2023/11/18 08:12:10;;;;;;;7.60;6.30;;;;;;;2.06;85.58;100563.80;103376;1257;109360;-71
2023/11/18 08:14:37;;;;;;;8.20;6.50;;;;;;;2.01;85.16;100568.57;103378;1253;137204;-71
2023/11/18 08:17:05;;;;;;;6.30;5.60;;;;;;;1.97;85.41;100570.23;103484;1253;108080;-73
2023/11/18 08:19:34;;;;;;;6.40;5.70;;;;;;;1.98;85.73;100572.84;103278;1253;139853;-69
2023/11/18 08:22:01;;;;;;;7.80;5.50;;;;;;;1.99;85.83;100569.42;103759;1253;109024;-70
2023/11/18 08:24:29;;;;;;;9.60;6.70;;;;;;;2.07;85.79;100576.67;103050;1253;1003518;-70
2023/11/18 08:26:56;;;;;;;6.70;5.60;;;;;;;2.13;85.81;100576.19;103280;1253;139235;-69
2023/11/18 08:29:24;;;;;;;7.20;5.90;;;;;;;2.18;85.67;100581.40;103364;1253;108296;-69
2023/11/18 08:31:51;;;;;;;8.10;6.30;;;;;;;2.19;85.51;100582.43;103246;1253;138006;-69
2023/11/18 08:34:19;;;;;;;7.70;6.90;;;;;;;2.16;85.43;100591.34;103685;1253;109624;-70
2023/11/18 08:36:46;;;;;;;9.40;7.70;;;;;;;2.10;85.31;100590.07;102602;1257;1003847;-70
2023/11/18 08:39:16;;;;;;;7.50;6.00;;;;;;;2.04;85.15;100593.45;104139;1253;137294;-71
2023/11/18 08:41:45;;;;;;;7.80;6.00;;;;;;;1.97;85.15;100595.12;101950;1253;1015613;-71
2023/11/18 08:44:13;;;;;;;7.60;5.70;;;;;;;1.94;85.52;100595.08;103897;1253;138098;-70
2023/11/18 08:46:52;;;;;;;6.00;5.40;;;;;;;1.94;85.51;100596.62;102729;1253;1003631;-71
2023/11/18 08:49:21;;;;;;;6.60;5.90;;;;;;;1.98;85.52;100599.41;103604;1253;108736;-70
2023/11/18 08:51:49;;;;;;;7.00;5.40;;;;;;;2.01;85.53;100597.38;101952;1257;1015755;-70
2023/11/18 08:54:25;;;;;;;7.70;6.40;;;;;;;2.01;85.03;100599.10;103386;1257;108164;-70
2023/11/18 08:56:52;;;;;;;7.20;6.10;;;;;;;1.99;85.21;100602.69;104528;1252;138313;-71
2023/11/18 08:59:24;;;;;;;7.30;6.30;;;;;;;2.01;85.25;100604.24;104001;1256;109314;-70
2023/11/18 09:01:55;;;;;;;8.40;6.60;;;;;;;2.01;85.20;100610.08;103866;1252;1002642;-71
2023/11/18 09:04:23;;;;;;;8.20;6.80;;;;;;;2.01;85.32;100611.62;103747;1253;98158;-70
2023/11/18 09:06:51;;;;;;;6.60;5.80;;;;;;;2.00;85.17;100609.39;103633;1256;107273;-70
2023/11/18 09:09:25;;;;;;;7.00;6.10;;;;;;;1.98;84.99;100616.06;103700;1253;137813;-71
2023/11/18 09:11:52;;;;;;;6.00;5.20;;;;;;;2.00;85.40;100617.09;103016;1253;1002986;-71
2023/11/18 09:14:19;;;;;;;6.10;5.50;;;;;;;2.04;85.19;100618.85;103244;1257;137736;-71
2023/11/18 09:16:46;;;;;;;6.50;5.80;;;;;;;2.06;84.86;100619.02;102614;1253;1003059;-71
2023/11/18 09:19:14;;;;;;;6.40;5.50;;;;;;;2.05;84.70;100615.41;103427;1254;108462;-70
2023/11/18 09:21:41;;;;;;;7.30;6.20;;;;;;;2.00;84.68;100622.59;103737;1253;1002179;-70
2023/11/18 09:24:13;;;;;;;8.10;6.60;;;;;;;2.00;84.71;100620.02;103604;1253;109371;-70
2023/11/18 09:26:40;;;;;;;7.30;6.50;;;;;;;1.98;84.63;100625.83;102550;1253;1002915;-69
2023/11/18 09:29:08;;;;;;;7.60;6.10;;;;;;;1.91;84.44;100627.80;103438;1253;96962;-70
2023/11/18 09:31:36;;;;;;;5.80;5.10;;;;;;;1.86;84.69;100628.80;103899;1253;138324;-70
2023/11/18 09:34:06;;;;;;;6.60;5.50;;;;;;;1.87;85.03;100630.69;103369;1253;96521;-69
2023/11/18 09:36:33;;;;;;;6.00;5.20;;;;;;;1.89;84.94;100629.84;103417;1253;109008;-71
2023/11/18 09:39:03;;;;;;;7.00;5.40;;;;;;;1.93;85.24;100633.65;102841;1256;1003113;-70
2023/11/18 09:41:31;;;;;;;7.70;5.30;;;;;;;1.99;85.06;100636.65;103587;1253;96950;-70
2023/11/18 09:44:02;;;;;;;6.80;5.80;;;;;;;2.01;85.14;100634.09;103484;1253;137168;-69
2023/11/18 09:46:32;;;;;;;8.80;6.30;;;;;;;2.07;85.07;100626.58;103583;1253;96460;-70
2023/11/18 09:49:18;;;;;;;8.20;6.20;;;;;;;2.07;84.76;100626.77;103406;1253;109621;-69
2023/11/18 09:51:47;;;;;;;7.00;6.30;;;;;;;2.09;84.98;100631.57;103560;1253;108244;-71
2023/11/18 09:54:29;;;;;;;7.30;6.00;;;;;;;2.10;85.21;100630.72;102202;1253;1003379;-70
2023/11/18 09:57:08;;;;;;;6.30;5.40;;;;;;;2.18;85.26;100630.63;104065;1256;139203;-72
2023/11/18 09:59:44;;;;;;;7.90;5.90;;;;;;;2.27;84.97;100630.69;103430;1257;96456;-69
2023/11/18 10:02:12;;;;;;;7.80;5.70;;;;;;;2.31;84.55;100633.80;103317;1256;137317;-71
2023/11/18 10:04:39;;;;;;;6.60;5.90;;;;;;;2.38;84.48;100636.10;103339;1257;107406;-72
2023/11/18 10:07:10;;;;;;;7.40;6.40;;;;;;;2.47;84.88;100632.73;103543;1253;96846;-71
2023/11/18 10:09:38;;;;;;;6.80;6.10;;;;;;;2.58;84.57;100632.11;103283;1257;136786;-71
2023/11/18 10:12:08;;;;;;;9.90;6.70;;;;;;;2.60;83.92;100628.17;103575;1254;96780;-71
2023/11/18 10:14:35;;;;;;;8.40;6.90;;;;;;;2.65;83.93;100628.54;103620;1253;137230;-70
2023/11/18 10:17:07;;;;;;;8.20;7.10;;;;;;;2.69;83.84;100631.84;103911;1252;107656;-71
2023/11/18 10:19:56;;;;;;;9.00;7.00;;;;;;;2.72;83.44;100634.27;104082;1253;137925;-71
2023/11/18 10:22:27;;;;;;;7.40;6.20;;;;;;;2.68;83.14;100637.48;104012;1253;1002443;-71
2023/11/18 10:24:55;;;;;;;8.70;7.10;;;;;;;2.66;82.98;100637.80;104407;1253;94575;-71
2023/11/18 10:27:25;;;;;;;8.50;6.70;;;;;;;2.65;82.99;100637.64;103512;1253;138184;-70
2023/11/18 10:29:55;;;;;;;8.40;6.80;;;;;;;2.73;83.06;100646.12;103732;1253;106766;-71
2023/11/18 10:32:27;;;;;;;10.00;7.40;;;;;;;2.80;82.95;100647.86;103495;1254;137668;-71
2023/11/18 10:34:54;;;;;;;9.90;7.80;;;;;;;2.89;83.32;100651.36;103346;1257;108169;-71
2023/11/18 10:37:22;;;;;;;10.10;8.60;;;;;;;3.01;83.39;100650.38;103447;1253;96423;-71
2023/11/18 10:39:51;;;;;;;10.00;8.30;;;;;;;3.10;83.27;100640.64;103885;1253;110260;-70
2023/11/18 10:42:19;;;;;;;12.50;9.40;;;;;;;3.11;82.51;100633.09;103427;1253;108017;-70
2023/11/18 10:44:57;;;;;;;12.90;10.40;;;;;;;3.05;81.92;100624.30;103519;1254;137489;-70
2023/11/18 10:47:25;;;;;;;12.30;10.30;;;;;;;3.06;82.13;100630.15;103611;1253;108089;-71
2023/11/18 10:49:55;;;;;;;11.20;9.30;;;;;;;2.99;82.06;100635.26;102596;1253;1004204;-70
2023/11/18 10:52:23;;;;;;;12.10;9.30;;;;;;;2.93;82.30;100637.13;103520;1253;109219;-70
2023/11/18 10:54:56;;;;;;;12.00;10.00;;;;;;;2.94;82.36;100638.85;103812;1257;108891;-71
2023/11/18 10:57:23;;;;;;;11.30;9.70;;;;;;;2.96;82.44;100640.92;102610;1253;1003009;-71
2023/11/18 11:00:03;;;;;;;14.50;11.40;;;;;;;3.00;82.42;100644.53;103686;1257;106548;-71
2023/11/18 11:02:39;;;;;;;13.40;11.30;;;;;;;3.09;83.06;100637.38;104421;1253;138059;-72
2023/11/18 11:05:07;;;;;;;15.90;13.10;;;;;;;3.17;82.61;100641.00;104054;1253;108818;-72
2023/11/18 11:07:37;;;;;;;15.10;12.40;;;;;;;3.17;82.38;100644.44;104511;1253;140525;-70
2023/11/18 11:10:05;;;;;;;15.70;13.10;;;;;;;3.18;82.21;100644.61;103463;1252;97116;-70
2023/11/18 11:12:34;;;;;;;18.00;13.90;;;;;;;3.17;82.27;100648.23;102853;1257;1002303;-70
2023/11/18 11:15:07;;;;;;;17.80;13.90;;;;;;;3.14;82.09;100653.54;103385;1257;138172;-69
2023/11/18 11:17:37;;;;;;;15.60;12.50;;;;;;;3.09;82.02;100656.62;103480;1253;110477;-70